createdAt,value
2023-02-28T12:38:34.488Z,8.02
2023-02-28T12:39:44.886Z,8.40
2023-02-28T12:40:34.434Z,8.44
2023-02-28T12:41:34.423Z,8.84
2023-02-28T12:42:34.385Z,8.74
2023-02-28T12:43:34.351Z,8.76
2023-02-28T12:44:34.316Z,8.55
2023-02-28T12:45:34.361Z,8.37
2023-02-28T12:46:34.376Z,8.18
2023-02-28T12:47:34.274Z,8.10
2023-02-28T12:48:34.246Z,8.65
2023-02-28T12:49:34.211Z,8.22
2023-02-28T12:50:34.196Z,8.40
2023-02-28T12:51:34.165Z,8.29
2023-02-28T12:52:34.145Z,8.44
2023-02-28T12:53:34.121Z,8.16
2023-02-28T12:54:34.089Z,8.23
2023-02-28T12:55:34.069Z,8.68
2023-02-28T12:56:34.067Z,9.04
2023-02-28T12:57:34.031Z,8.98
2023-02-28T12:58:34.023Z,8.84
2023-02-28T12:59:33.978Z,8.83
2023-02-28T13:00:33.960Z,9.01
2023-02-28T13:01:34.301Z,8.77
2023-02-28T13:02:34.025Z,8.81
2023-02-28T13:03:33.914Z,8.50
2023-02-28T13:04:33.881Z,8.19
2023-02-28T13:05:33.869Z,8.66
2023-02-28T13:06:33.855Z,9.10
2023-02-28T13:07:33.858Z,9.42
2023-02-28T13:08:33.811Z,9.26
2023-02-28T13:09:33.763Z,9.28
2023-02-28T13:10:33.748Z,9.15
2023-02-28T13:11:33.961Z,9.28
2023-02-28T13:12:33.727Z,9.18
2023-02-28T13:13:33.693Z,8.79
2023-02-28T13:14:33.704Z,9.28
2023-02-28T13:15:33.633Z,9.79
2023-02-28T13:16:35.207Z,9.76
2023-02-28T13:17:33.597Z,9.71
2023-02-28T13:18:33.620Z,9.33
2023-02-28T13:19:33.573Z,9.32
2023-02-28T13:20:33.562Z,9.38
2023-02-28T13:21:33.534Z,9.84
2023-02-28T13:22:33.501Z,10.36
2023-02-28T13:23:33.514Z,10.04
2023-02-28T13:24:33.462Z,9.58
2023-02-28T13:25:33.435Z,9.81
2023-02-28T13:26:33.498Z,9.93
2023-02-28T13:27:33.437Z,10.45
2023-02-28T13:28:33.402Z,10.56
2023-02-28T13:29:33.376Z,10.88
2023-02-28T13:30:33.393Z,10.78
2023-02-28T13:31:33.320Z,9.99
2023-02-28T13:32:33.324Z,9.76
2023-02-28T13:33:33.297Z,9.81
2023-02-28T13:34:33.301Z,9.79
2023-02-28T13:35:33.282Z,9.72
2023-02-28T13:36:33.250Z,10.05
2023-02-28T13:37:33.228Z,10.67
2023-02-28T13:38:33.196Z,11.14
2023-02-28T13:39:35.214Z,10.79
2023-02-28T13:40:33.171Z,10.44
2023-02-28T13:41:33.285Z,10.04
2023-02-28T13:42:33.115Z,10.34
2023-02-28T13:43:36.043Z,10.36
2023-02-28T13:44:33.100Z,10.41
2023-02-28T13:45:33.077Z,10.51
2023-02-28T13:46:33.102Z,10.92
2023-02-28T13:47:33.032Z,11.52
2023-02-28T13:48:33.007Z,11.11
2023-02-28T13:49:33.032Z,10.44
2023-02-28T13:50:32.979Z,10.15
2023-02-28T13:51:33.979Z,10.20
2023-02-28T13:52:32.941Z,9.83
2023-02-28T13:53:32.929Z,9.87
2023-02-28T13:54:32.937Z,9.91
2023-02-28T13:55:32.900Z,10.08
2023-02-28T13:56:32.882Z,10.08
2023-02-28T13:57:32.853Z,10.07
2023-02-28T13:58:32.853Z,10.02
2023-02-28T13:59:32.813Z,10.04
2023-02-28T14:00:41.682Z,9.87
2023-02-28T14:01:33.262Z,9.76
2023-02-28T14:02:32.744Z,9.83
2023-02-28T14:03:32.728Z,9.60
2023-02-28T14:04:33.704Z,9.33
2023-02-28T14:05:32.709Z,9.43
2023-02-28T14:06:32.896Z,9.31
2023-02-28T14:07:36.257Z,9.17
2023-02-28T14:08:32.636Z,9.08
2023-02-28T14:09:32.602Z,8.62
2023-02-28T14:10:32.629Z,8.92
2023-02-28T14:11:32.588Z,9.01
2023-02-28T14:12:32.555Z,9.14
2023-02-28T14:13:32.556Z,9.42
2023-02-28T14:14:32.548Z,9.76
2023-02-28T14:15:32.557Z,9.69
2023-02-28T14:16:32.561Z,9.69
2023-02-28T14:17:32.461Z,10.07
2023-02-28T14:18:32.478Z,9.78
2023-02-28T14:19:32.459Z,9.74
2023-02-28T14:20:32.438Z,9.86
2023-02-28T14:21:32.396Z,9.74
2023-02-28T14:22:32.376Z,9.81
2023-02-28T14:23:32.355Z,10.04
2023-02-28T14:24:32.365Z,10.91
2023-02-28T14:25:32.341Z,11.21
2023-02-28T14:26:32.325Z,10.94
2023-02-28T14:27:32.289Z,11.46
2023-02-28T14:28:32.277Z,11.44
2023-02-28T14:44:59.522Z,10.53
2023-02-28T14:45:59.512Z,10.86
2023-02-28T14:46:59.493Z,10.96
2023-02-28T14:47:59.452Z,10.73
2023-02-28T14:48:59.455Z,10.22
2023-02-28T14:49:59.426Z,10.04
2023-02-28T14:50:59.420Z,9.58
2023-02-28T14:51:59.388Z,9.02
2023-02-28T14:52:59.387Z,8.79
2023-02-28T14:53:59.356Z,8.37
2023-02-28T14:54:59.353Z,8.16
2023-02-28T14:55:59.303Z,8.12
